Time;durP1;ratioP1;P1;durP2;ratioP2;P2;SDS_P1;SDS_P2;PMS_P1;PMS_P2;Temp;Humidity;BMP_temperature;BMP_pressure;BME280_temperature;BME280_humidity;BME280_pressure;Samples;Min_cycle;Max_cycle;Signal;HPM_P1;HPM_P2
2021/11/30 00:01:34;;;;;;;56.20;52.10;;;;;;;6.20;100.00;101592.50;2013376;71;32878;-75
2021/11/30 00:07:19;;;;;;;58.47;54.13;;;;;;;6.32;100.00;101575.41;2013782;70;33386;-69
2021/11/30 00:13:03;;;;;;;57.97;53.67;;;;;;;6.34;100.00;101582.05;2009596;71;32923;-68
2021/11/30 00:18:47;;;;;;;55.20;51.10;;;;;;;6.44;100.00;101596.64;2015217;71;32876;-76
2021/11/30 00:24:32;;;;;;;54.53;50.40;;;;;;;6.52;100.00;101592.98;1885882;75;33509;-70
2021/11/30 00:30:21;;;;;;;56.53;52.13;;;;;;;6.67;100.00;101582.84;2018486;71;32881;-69
2021/11/30 00:39:06;;;;;;;58.50;54.57;;;;;;;6.88;100.00;101587.73;2013304;71;32862;-75
2021/11/30 00:44:51;;;;;;;57.17;52.97;;;;;;;6.80;100.00;101576.50;1995045;71;32815;-70
2021/11/30 00:50:37;;;;;;;58.30;54.20;;;;;;;6.85;100.00;101579.91;2010047;71;32827;-69
2021/11/30 00:56:21;;;;;;;59.23;54.93;;;;;;;6.93;100.00;101580.10;2013247;71;33362;-77
2021/11/30 01:02:05;;;;;;;58.63;54.33;;;;;;;7.01;100.00;101588.01;2015124;71;32908;-75
2021/11/30 01:07:51;;;;;;;58.83;54.63;;;;;;;7.15;100.00;101592.16;2000898;71;32754;-76
2021/11/30 01:13:34;;;;;;;59.20;55.00;;;;;;;7.20;100.00;101580.67;1991691;71;32753;-76
2021/11/30 01:19:19;;;;;;;61.37;56.97;;;;;;;7.28;100.00;101587.19;2006539;71;32771;-76
2021/11/30 01:25:04;;;;;;;61.27;56.90;;;;;;;7.32;100.00;101586.16;2006553;71;32734;-77
2021/11/30 01:30:49;;;;;;;62.17;57.37;;;;;;;7.38;100.00;101585.18;2012043;71;33217;-77
2021/11/30 01:36:34;;;;;;;59.63;54.93;;;;;;;7.42;100.00;101589.13;2009767;71;33351;-74
2021/11/30 01:42:20;;;;;;;63.33;58.40;;;;;;;7.58;100.00;101584.72;2014942;71;32801;-74
2021/11/30 01:54:16;;;;;;;63.77;58.70;;;;;;;7.64;100.00;101586.52;2009509;71;32893;-74
2021/11/30 02:00:01;;;;;;;63.13;57.70;;;;;;;7.61;100.00;101562.13;2000454;71;32803;-75
2021/11/30 02:05:45;;;;;;;64.70;59.50;;;;;;;7.64;100.00;101564.39;2018599;71;32871;-77
2021/11/30 02:11:29;;;;;;;61.70;56.80;;;;;;;7.74;100.00;101550.77;2003013;71;33409;-75
2021/11/30 02:17:14;;;;;;;62.60;57.40;;;;;;;7.84;100.00;101542.63;2004142;71;33357;-71
2021/11/30 02:22:58;;;;;;;62.20;56.97;;;;;;;7.91;100.00;101536.41;1998846;71;33382;-75
2021/11/30 02:28:44;;;;;;;62.07;57.07;;;;;;;7.96;100.00;101524.59;1995251;71;32806;-69
2021/11/30 02:34:30;;;;;;;61.43;56.63;;;;;;;7.97;100.00;101521.55;2008190;71;32743;-70
2021/11/30 02:40:16;;;;;;;60.47;55.67;;;;;;;8.01;100.00;101532.41;2018647;71;33460;-70
2021/11/30 02:46:00;;;;;;;62.00;57.30;;;;;;;8.11;100.00;101518.74;2016890;71;32838;-70
2021/11/30 02:51:47;;;;;;;60.97;56.27;;;;;;;8.15;100.00;101512.16;1991785;71;33271;-75
2021/11/30 02:57:33;;;;;;;63.30;58.43;;;;;;;8.18;100.00;101503.34;2004659;71;33276;-77
2021/11/30 03:03:17;;;;;;;59.53;55.00;;;;;;;8.24;100.00;101502.34;2005909;71;32816;-71
2021/11/30 03:09:01;;;;;;;61.93;57.27;;;;;;;8.28;100.00;101504.88;2015209;71;33432;-77
2021/11/30 03:14:46;;;;;;;60.43;56.23;;;;;;;8.34;100.00;101506.69;2011448;71;33268;-76
2021/11/30 03:20:31;;;;;;;60.77;56.47;;;;;;;8.41;100.00;101514.79;1991804;71;33220;-70
2021/11/30 03:26:16;;;;;;;57.93;53.73;;;;;;;8.47;100.00;101510.44;2006225;71;33418;-70
2021/11/30 03:32:07;;;;;;;59.87;55.63;;;;;;;8.50;100.00;101485.58;2008245;71;33227;-70
2021/11/30 03:37:51;;;;;;;58.53;54.33;;;;;;;8.52;100.00;101486.98;1996797;71;34493;-71
2021/11/30 03:43:35;;;;;;;59.00;54.70;;;;;;;8.44;100.00;101498.50;2007741;71;33362;-70
2021/11/30 03:49:20;;;;;;;59.07;54.87;;;;;;;8.54;100.00;101504.73;2014950;71;32887;-76
2021/11/30 03:55:05;;;;;;;58.33;54.40;;;;;;;8.55;100.00;101505.03;1995346;71;33402;-77
2021/11/30 04:00:50;;;;;;;56.47;52.57;;;;;;;8.49;100.00;101494.97;2015147;71;33289;-76
2021/11/30 04:06:34;;;;;;;56.73;52.83;;;;;;;8.50;100.00;101500.27;2015264;71;33314;-77
2021/11/30 04:12:18;;;;;;;57.53;53.63;;;;;;;8.49;100.00;101493.58;2011849;71;32881;-70
2021/11/30 04:18:02;;;;;;;55.67;51.93;;;;;;;8.57;100.00;101485.67;2016820;71;33372;-70
2021/11/30 04:23:46;;;;;;;57.43;53.43;;;;;;;8.65;100.00;101499.07;1995632;70;32840;-76
2021/11/30 04:29:31;;;;;;;56.33;52.53;;;;;;;8.68;100.00;101488.86;2004444;71;32934;-74
2021/11/30 04:35:15;;;;;;;57.67;53.67;;;;;;;8.67;100.00;101483.05;2016782;70;32830;-74
2021/11/30 04:40:59;;;;;;;54.77;50.77;;;;;;;8.72;100.00;101492.52;2016901;71;32796;-70
2021/11/30 04:46:51;;;;;;;55.97;51.80;;;;;;;8.73;100.00;101483.93;1998652;71;32814;-75
2021/11/30 04:52:33;;;;;;;55.17;51.37;;;;;;;8.75;100.00;101473.44;2006496;71;33362;-77
2021/11/30 04:58:18;;;;;;;54.93;50.93;;;;;;;8.79;100.00;101466.84;2004506;71;33355;-74
2021/11/30 05:04:05;;;;;;;54.67;50.77;;;;;;;8.85;100.00;101475.52;2009417;71;32964;-74
2021/11/30 05:09:47;;;;;;;54.87;50.90;;;;;;;8.86;100.00;101459.99;2008250;71;32826;-75
2021/11/30 05:15:32;;;;;;;55.77;51.93;;;;;;;8.94;100.00;101473.96;2002267;71;32890;-73
2021/11/30 05:21:16;;;;;;;54.10;50.20;;;;;;;9.00;100.00;101458.51;2011349;71;33410;-75
2021/11/30 05:27:00;;;;;;;53.80;50.00;;;;;;;9.02;100.00;101458.26;2011526;71;33299;-76
2021/11/30 05:32:44;;;;;;;54.67;50.97;;;;;;;9.14;100.00;101434.84;2015429;70;32906;-77
2021/11/30 05:38:28;;;;;;;55.13;51.30;;;;;;;9.22;100.00;101438.22;2010053;71;32805;-70
2021/11/30 05:44:14;;;;;;;54.47;50.67;;;;;;;9.18;100.00;101435.14;2011790;71;32834;-69
2021/11/30 05:49:58;;;;;;;55.63;51.87;;;;;;;9.28;100.00;101433.03;2002800;71;32780;-76
2021/11/30 05:55:43;;;;;;;54.27;50.37;;;;;;;9.31;100.00;101438.04;1997107;71;32750;-77
2021/11/30 06:01:32;;;;;;;53.40;49.90;;;;;;;9.39;100.00;101447.27;2000997;71;33388;-76
2021/11/30 06:07:17;;;;;;;54.63;51.00;;;;;;;9.41;100.00;101433.41;2013618;71;32760;-76
2021/11/30 06:13:01;;;;;;;54.37;50.77;;;;;;;9.46;100.00;101436.78;1995495;71;32767;-76
2021/11/30 06:18:45;;;;;;;52.30;48.67;;;;;;;9.51;100.00;101440.45;2007624;71;32819;-75
2021/11/30 06:24:30;;;;;;;52.90;49.40;;;;;;;9.62;100.00;101441.39;2010003;71;32761;-75
2021/11/30 06:30:15;;;;;;;53.70;49.90;;;;;;;9.68;100.00;101436.15;2014993;71;32908;-75
2021/11/30 06:36:00;;;;;;;54.40;50.60;;;;;;;9.74;100.00;101430.94;1999111;71;32840;-75
2021/11/30 06:41:44;;;;;;;52.90;49.37;;;;;;;9.79;100.00;101424.05;2015038;71;33358;-74
2021/11/30 06:47:30;;;;;;;53.23;49.63;;;;;;;9.87;100.00;101424.94;2000911;71;33316;-76
2021/11/30 06:53:14;;;;;;;51.83;48.23;;;;;;;9.84;100.00;101406.60;2016857;71;33342;-76
2021/11/30 06:58:58;;;;;;;54.97;51.27;;;;;;;9.91;100.00;101413.59;2011684;71;32920;-76
2021/11/30 07:04:49;;;;;;;55.80;52.20;;;;;;;9.75;100.00;101405.42;2000947;71;32758;-70
2021/11/30 07:10:38;;;;;;;56.43;52.80;;;;;;;9.81;100.00;101410.73;2006592;71;33203;-76
2021/11/30 07:16:23;;;;;;;56.77;52.93;;;;;;;9.77;100.00;101418.46;2009980;70;32987;-72
2021/11/30 07:22:07;;;;;;;55.50;51.80;;;;;;;9.84;100.00;101426.83;2014943;71;32932;-72
2021/11/30 07:27:51;;;;;;;55.60;51.80;;;;;;;9.89;100.00;101435.20;2000912;71;32843;-72
2021/11/30 07:33:37;;;;;;;55.83;52.23;;;;;;;9.88;100.00;101455.72;1991740;71;32768;-71
2021/11/30 07:39:22;;;;;;;55.20;51.47;;;;;;;9.78;100.00;101460.37;2014807;71;32814;-78
2021/11/30 07:45:08;;;;;;;53.93;50.23;;;;;;;9.82;100.00;101463.73;2016824;71;32812;-72
2021/11/30 07:50:54;;;;;;;56.00;52.20;;;;;;;9.73;100.00;101450.61;2004267;71;33488;-75
2021/11/30 07:56:38;;;;;;;54.17;50.47;;;;;;;9.85;100.00;101461.81;2010215;71;33208;-71
2021/11/30 08:02:22;;;;;;;55.80;52.07;;;;;;;9.82;100.00;101456.80;2008195;71;32868;-73
2021/11/30 08:08:07;;;;;;;58.40;54.30;;;;;;;9.79;100.00;101467.59;1995076;71;32816;-72
2021/11/30 08:13:51;;;;;;;57.80;53.97;;;;;;;9.80;100.00;101472.02;2004255;71;32953;-72
2021/11/30 08:19:35;;;;;;;59.93;56.27;;;;;;;9.79;100.00;101480.08;1991850;71;33289;-78
2021/11/30 08:25:19;;;;;;;56.00;52.30;;;;;;;9.86;100.00;101494.02;2011616;71;33481;-72
2021/11/30 08:31:03;;;;;;;55.50;51.60;;;;;;;10.02;100.00;101486.63;2015060;71;32934;-72
2021/11/30 08:36:47;;;;;;;58.07;54.13;;;;;;;10.09;100.00;101496.14;2002609;71;32741;-75
2021/11/30 08:42:32;;;;;;;55.93;52.03;;;;;;;10.24;100.00;101494.87;1980371;72;33579;-76
2021/11/30 08:48:16;;;;;;;55.33;51.43;;;;;;;10.40;100.00;101496.09;1934205;73;33040;-75
2021/11/30 08:54:00;;;;;;;54.27;50.60;;;;;;;10.47;100.00;101483.38;2001130;71;33234;-75
2021/11/30 08:59:45;;;;;;;52.63;48.90;;;;;;;10.59;100.00;101477.59;2009556;71;32820;-75
2021/11/30 09:05:31;;;;;;;53.43;49.63;;;;;;;10.66;100.00;101483.18;1995449;71;33320;-74
2021/11/30 09:11:16;;;;;;;56.27;52.27;;;;;;;10.76;100.00;101479.07;2009789;71;33286;-72
2021/11/30 09:17:00;;;;;;;54.67;50.87;;;;;;;10.84;100.00;101466.59;2001956;70;32760;-74
2021/11/30 09:22:45;;;;;;;53.73;49.83;;;;;;;10.89;100.00;101456.89;2011909;71;33422;-72
2021/11/30 09:28:30;;;;;;;55.13;51.13;;;;;;;10.94;100.00;101470.26;2009522;71;32805;-72
2021/11/30 09:34:14;;;;;;;54.97;51.17;;;;;;;10.91;100.00;101463.83;2017104;71;33298;-72
2021/11/30 09:39:59;;;;;;;53.97;50.27;;;;;;;10.98;100.00;101458.58;2018631;70;32978;-75
2021/11/30 09:45:45;;;;;;;54.50;50.60;;;;;;;11.04;100.00;101465.27;2000351;71;32786;-75
2021/11/30 09:51:30;;;;;;;56.43;52.23;;;;;;;11.14;100.00;101468.63;2000204;71;33322;-72
2021/11/30 09:57:14;;;;;;;55.53;51.53;;;;;;;11.19;100.00;101463.09;2016742;71;32883;-72
2021/11/30 10:02:59;;;;;;;61.17;56.63;;;;;;;11.22;100.00;101459.75;2006371;71;32823;-72
2021/11/30 10:08:45;;;;;;;56.27;52.47;;;;;;;11.33;100.00;101457.30;1995054;71;33391;-75
2021/11/30 10:14:44;;;;;;;57.63;53.67;;;;;;;11.38;100.00;101460.89;2013477;71;32949;-71
2021/11/30 10:20:32;;;;;;;57.60;53.50;;;;;;;11.42;100.00;101466.77;2008226;71;32895;-75
2021/11/30 10:26:18;;;;;;;55.40;51.77;;;;;;;11.50;100.00;101465.38;2000845;71;32760;-72
2021/11/30 10:32:08;;;;;;;55.30;51.60;;;;;;;11.49;100.00;101463.70;2014920;71;33515;-76
2021/11/30 10:37:52;;;;;;;62.20;58.00;;;;;;;11.53;100.00;101452.30;2013404;71;32913;-75
2021/11/30 10:43:41;;;;;;;58.40;54.60;;;;;;;11.51;100.00;101452.56;2013587;71;33297;-75
2021/11/30 10:49:38;;;;;;;55.67;52.03;;;;;;;11.57;100.00;101449.23;2011450;71;32763;-74
2021/11/30 10:55:22;;;;;;;54.23;50.70;;;;;;;11.62;100.00;101443.13;2004039;71;32836;-73
2021/11/30 11:01:11;;;;;;;54.43;50.73;;;;;;;11.63;100.00;101437.02;2003631;71;32827;-75
2021/11/30 11:07:10;;;;;;;54.03;50.23;;;;;;;11.73;100.00;101437.02;1998488;71;32969;-72
2021/11/30 11:12:58;;;;;;;53.77;50.07;;;;;;;11.74;100.00;101408.92;2009729;71;33372;-75
2021/11/30 11:19:02;;;;;;;54.80;50.83;;;;;;;11.80;100.00;101402.25;2016684;71;33383;-75
2021/11/30 11:24:50;;;;;;;56.27;52.33;;;;;;;11.84;100.00;101395.01;1998997;71;33296;-76
2021/11/30 11:30:44;;;;;;;53.23;49.40;;;;;;;11.88;100.00;101379.13;2011487;71;32769;-76
2021/11/30 11:36:30;;;;;;;56.80;52.87;;;;;;;11.92;100.00;101360.19;2014994;71;32820;-72
2021/11/30 11:42:16;;;;;;;56.03;52.03;;;;;;;12.02;100.00;101363.52;1991568;71;32842;-75
2021/11/30 11:48:08;;;;;;;55.67;51.57;;;;;;;12.12;100.00;101367.09;2006096;71;32772;-75
2021/11/30 11:54:28;;;;;;;54.00;50.17;;;;;;;12.11;100.00;101332.00;1999043;71;32916;-75
2021/11/30 12:00:19;;;;;;;53.37;49.67;;;;;;;12.10;100.00;101320.61;2003711;71;33426;-73
2021/11/30 12:06:16;;;;;;;55.70;51.90;;;;;;;12.16;100.00;101321.41;2002641;71;33259;-73
2021/11/30 12:09:20;;;;;;;55.07;51.17;;;;;;;12.16;100.00;101330.59;1966170;72;26328;-72
2021/11/30 12:15:08;;;;;;;55.33;51.53;;;;;;;12.18;100.00;101315.00;2015051;71;33332;-77
2021/11/30 12:20:52;;;;;;;52.33;48.53;;;;;;;12.25;100.00;101314.13;2014984;71;32844;-76
2021/11/30 12:26:49;;;;;;;53.60;49.73;;;;;;;12.33;100.00;101301.00;1995176;71;32818;-72
2021/11/30 12:32:54;;;;;;;55.07;51.27;;;;;;;12.33;100.00;101295.42;2001631;71;33325;-75
2021/11/30 12:38:41;;;;;;;54.60;50.80;;;;;;;12.40;100.00;101280.64;2006109;71;32800;-73
2021/11/30 12:44:45;;;;;;;54.10;50.40;;;;;;;12.63;100.00;101288.29;2006370;71;32781;-74
2021/11/30 12:50:38;;;;;;;56.13;52.33;;;;;;;12.59;100.00;101284.41;2002367;71;32884;-76
2021/11/30 13:00:22;;;;;;;52.30;48.77;;;;;;;12.61;100.00;101263.23;2014603;71;33334;-75
2021/11/30 13:06:07;;;;;;;55.70;52.10;;;;;;;12.60;100.00;101261.01;2006952;71;33326;-71
2021/11/30 13:12:24;;;;;;;54.40;50.80;;;;;;;12.59;100.00;101248.75;2002616;71;33232;-71
2021/11/30 13:18:09;;;;;;;53.10;49.70;;;;;;;12.63;100.00;101245.65;2009492;71;32910;-73
2021/11/30 13:23:53;;;;;;;54.47;51.03;;;;;;;12.71;100.00;101245.03;2011057;71;33176;-76
2021/11/30 13:29:38;;;;;;;54.13;50.63;;;;;;;12.69;100.00;101240.33;2016559;71;32899;-71
2021/11/30 13:35:25;;;;;;;53.33;49.83;;;;;;;12.66;100.00;101225.58;2003969;71;32967;-72
2021/11/30 13:41:19;;;;;;;54.47;50.87;;;;;;;12.63;100.00;101225.58;2002802;71;32771;-71
2021/11/30 13:47:07;;;;;;;58.30;54.50;;;;;;;12.69;100.00;101227.22;2018476;71;32919;-76
2021/11/30 13:53:11;;;;;;;57.80;54.20;;;;;;;12.63;100.00;101224.75;2012979;71;32905;-75
2021/11/30 13:59:09;;;;;;;58.40;54.80;;;;;;;12.65;100.00;101216.38;1990749;71;33353;-80
2021/11/30 14:04:46;;;;;;;56.87;53.20;;;;;;;12.65;100.00;101216.38;2005807;71;32866;-76
2021/11/30 14:10:32;;;;;;;57.30;53.70;;;;;;;12.66;100.00;101218.02;2014710;71;32894;-70
2021/11/30 14:16:17;;;;;;;56.80;53.20;;;;;;;12.64;100.00;101202.17;1995045;71;32866;-70
2021/11/30 14:22:14;;;;;;;56.50;52.90;;;;;;;12.61;100.00;101193.01;2006213;71;33330;-70
2021/11/30 14:28:14;;;;;;;57.33;53.53;;;;;;;12.61;100.00;101186.59;2013072;71;32826;-75
2021/11/30 14:34:16;;;;;;;53.07;49.57;;;;;;;12.67;100.00;101179.28;2016868;71;33506;-71
2021/11/30 14:40:16;;;;;;;55.60;51.97;;;;;;;12.77;100.00;101174.19;2016774;71;32807;-71
2021/11/30 14:46:02;;;;;;;53.87;50.40;;;;;;;12.76;100.00;101159.98;2009894;71;33412;-71
2021/11/30 14:51:49;;;;;;;53.07;49.47;;;;;;;12.77;100.00;101152.73;2007911;71;33367;-71
2021/11/30 14:57:36;;;;;;;56.17;52.77;;;;;;;12.78;100.00;101146.59;2009882;71;32751;-75
2021/11/30 15:03:23;;;;;;;53.30;49.90;;;;;;;12.75;100.00;101129.04;2002517;71;32904;-71
2021/11/30 15:09:11;;;;;;;56.50;52.80;;;;;;;12.74;100.00;101127.40;2005714;71;32917;-69
2021/11/30 15:14:56;;;;;;;53.23;49.67;;;;;;;12.74;100.00;101123.22;1991677;71;33323;-71
2021/11/30 15:20:40;;;;;;;56.17;52.77;;;;;;;12.73;100.00;101114.58;2006044;71;33440;-71
2021/11/30 15:26:30;;;;;;;55.57;52.07;;;;;;;12.69;100.00;101119.91;1996960;71;32747;-71
2021/11/30 15:32:16;;;;;;;50.90;47.57;;;;;;;12.75;100.00;101106.73;2000532;71;33290;-72
2021/11/30 15:38:00;;;;;;;53.23;49.87;;;;;;;12.66;100.00;101094.59;1991517;71;32758;-76
2021/11/30 15:43:44;;;;;;;50.27;47.10;;;;;;;12.53;100.00;101088.30;2015188;71;32960;-75
2021/11/30 15:49:31;;;;;;;53.27;49.87;;;;;;;12.53;100.00;101089.70;2002649;71;32958;-73
2021/11/30 15:55:18;;;;;;;53.80;50.40;;;;;;;12.50;100.00;101082.73;2011863;71;32855;-75
2021/11/30 16:01:04;;;;;;;55.33;51.97;;;;;;;12.43;100.00;101067.48;1934352;73;33064;-75
2021/11/30 16:06:54;;;;;;;54.97;51.57;;;;;;;12.35;100.00;101056.97;1928458;73;32967;-77
2021/11/30 16:12:39;;;;;;;55.37;51.97;;;;;;;12.32;100.00;101053.64;1940969;74;33110;-76
2021/11/30 16:18:27;;;;;;;50.97;47.67;;;;;;;12.33;100.00;101045.55;2013057;71;32830;-74
2021/11/30 16:24:03;;;;;;;51.80;48.60;;;;;;;12.28;100.00;101018.30;1979888;72;32289;-76
2021/11/30 16:30:02;;;;;;;50.63;47.47;;;;;;;12.50;100.00;101039.55;2000571;71;33290;-73
2021/11/30 16:35:53;;;;;;;50.90;47.60;;;;;;;12.48;100.00;101029.27;1911648;74;33456;-78
2021/11/30 16:41:39;;;;;;;51.30;48.00;;;;;;;12.45;100.00;101012.32;2005739;71;33491;-76
2021/11/30 16:47:24;;;;;;;51.23;47.83;;;;;;;12.44;100.00;100993.94;2015110;71;33312;-72
2021/11/30 16:53:10;;;;;;;50.80;47.40;;;;;;;12.50;100.00;100999.70;2004133;71;32833;-72
2021/11/30 16:58:58;;;;;;;52.23;48.93;;;;;;;12.53;100.00;100987.44;2006360;71;32760;-77
2021/11/30 17:04:42;;;;;;;52.70;49.30;;;;;;;12.54;100.00;100978.48;2005971;71;32829;-71
2021/11/30 17:10:28;;;;;;;52.63;49.33;;;;;;;12.55;100.00;100957.86;2010065;71;32764;-71
2021/11/30 17:16:17;;;;;;;53.93;50.63;;;;;;;12.54;100.00;100947.83;1997316;71;32862;-76
2021/11/30 17:21:58;;;;;;;55.47;52.17;;;;;;;12.54;100.00;100938.91;2005715;71;32892;-72
2021/11/30 17:27:43;;;;;;;54.37;50.97;;;;;;;12.62;100.00;100917.36;2014996;71;32913;-72
2021/11/30 17:33:28;;;;;;;53.83;50.43;;;;;;;12.60;100.00;100916.84;2011978;71;33366;-72
2021/11/30 17:39:12;;;;;;;54.73;51.23;;;;;;;12.59;100.00;100911.00;1997365;71;32872;-76
2021/11/30 17:44:57;;;;;;;54.67;51.27;;;;;;;12.50;100.00;100896.62;1997297;71;32804;-77
2021/11/30 17:50:41;;;;;;;59.50;55.90;;;;;;;12.53;100.00;100889.08;2007958;71;32811;-73
2021/11/30 17:56:26;;;;;;;56.20;52.70;;;;;;;12.58;100.00;100880.07;2000999;71;33331;-73
2021/11/30 18:02:10;;;;;;;57.10;53.60;;;;;;;12.59;100.00;100862.23;2010182;71;32843;-72
2021/11/30 18:07:55;;;;;;;55.43;51.93;;;;;;;12.65;100.00;100846.28;2011670;71;33361;-73
2021/11/30 18:13:40;;;;;;;54.87;51.47;;;;;;;12.69;100.00;100839.81;2002573;71;33285;-75
2021/11/30 18:19:24;;;;;;;56.33;52.97;;;;;;;12.69;100.00;100831.45;1991770;71;32896;-75
2021/11/30 18:25:11;;;;;;;58.53;55.13;;;;;;;12.71;100.00;100814.41;2001148;71;32826;-73
2021/11/30 18:30:58;;;;;;;57.00;53.53;;;;;;;12.72;100.00;100807.16;2013575;71;32794;-75
2021/11/30 18:36:42;;;;;;;56.70;53.17;;;;;;;12.69;100.00;100783.24;2008303;71;32921;-75
2021/11/30 18:42:26;;;;;;;55.33;52.03;;;;;;;12.66;100.00;100786.64;1939242;71;33524;-75
2021/11/30 18:48:11;;;;;;;56.07;52.67;;;;;;;12.61;100.00;100769.42;2005544;71;33411;-77
2021/11/30 18:53:56;;;;;;;54.40;51.10;;;;;;;12.57;100.00;100746.08;2000703;71;32877;-74
2021/11/30 18:59:41;;;;;;;56.40;52.90;;;;;;;12.56;100.00;100744.42;2013100;71;33357;-76
2021/11/30 19:05:27;;;;;;;48.77;45.67;;;;;;;12.54;100.00;100724.38;2011800;71;33404;-74
2021/11/30 19:11:11;;;;;;;49.40;46.20;;;;;;;12.59;100.00;100708.98;1995538;71;32826;-73
2021/11/30 19:16:57;;;;;;;53.63;50.43;;;;;;;12.58;100.00;100686.41;2013579;71;32811;-74
2021/11/30 19:22:41;;;;;;;53.07;49.67;;;;;;;12.52;100.00;100676.50;2013566;71;32818;-73
2021/11/30 19:28:26;;;;;;;51.60;48.50;;;;;;;12.54;100.00;100674.78;2006677;71;32828;-76
2021/11/30 19:34:10;;;;;;;54.50;51.20;;;;;;;12.51;100.00;100665.09;2019081;71;33299;-74
2021/11/30 19:39:54;;;;;;;50.60;47.67;;;;;;;12.53;100.00;100659.22;2018925;71;33303;-74
2021/11/30 19:45:38;;;;;;;47.43;44.73;;;;;;;12.33;100.00;100619.96;2009847;71;32839;-74
2021/11/30 19:51:25;;;;;;;47.00;44.30;;;;;;;12.40;100.00;100617.64;2016919;71;32931;-74
2021/11/30 19:57:16;;;;;;;48.10;45.20;;;;;;;12.35;100.00;100598.22;1998914;71;32829;-75
2021/11/30 20:09:02;;;;;;;47.90;44.90;;;;;;;12.40;100.00;100581.98;1992047;71;32844;-74
2021/11/30 20:14:47;;;;;;;48.90;45.80;;;;;;;12.34;100.00;100572.88;2006664;71;32855;-74
2021/11/30 20:20:33;;;;;;;48.50;45.20;;;;;;;12.35;100.00;100560.62;2015330;71;32850;-75
2021/11/30 20:26:18;;;;;;;49.33;46.23;;;;;;;12.38;100.00;100553.03;2010283;71;32784;-75
2021/11/30 20:32:03;;;;;;;49.13;45.93;;;;;;;12.41;100.00;100525.16;2015273;71;32822;-74
2021/11/30 20:43:58;;;;;;;48.50;45.37;;;;;;;12.38;100.00;100502.90;2006028;71;32898;-74
2021/11/30 20:49:44;;;;;;;50.17;46.97;;;;;;;12.33;100.00;100499.64;2015272;71;32935;-75
2021/11/30 20:55:29;;;;;;;49.47;46.33;;;;;;;12.30;100.00;100484.11;2011848;71;33041;-73
2021/11/30 21:01:16;;;;;;;47.77;44.77;;;;;;;12.25;100.00;100457.73;1995616;71;32767;-74
2021/11/30 21:07:01;;;;;;;47.70;44.80;;;;;;;12.22;100.00;100431.34;2012240;71;33288;-74
2021/11/30 21:12:46;;;;;;;48.00;45.00;;;;;;;12.16;100.00;100420.59;2013519;71;32832;-74
2021/11/30 21:18:31;;;;;;;46.03;43.23;;;;;;;12.15;100.00;100379.98;2013616;71;32824;-75
2021/11/30 21:24:15;;;;;;;49.27;46.27;;;;;;;12.10;100.00;100366.98;2006655;71;32890;-74
2021/11/30 21:29:59;;;;;;;47.97;44.97;;;;;;;12.13;100.00;100358.57;2006644;71;32874;-75
2021/11/30 21:35:43;;;;;;;48.17;45.13;;;;;;;12.07;100.00;100332.78;2004400;71;33323;-75
2021/11/30 21:41:28;;;;;;;51.03;47.93;;;;;;;12.12;100.00;100322.94;1999096;71;32779;-75
2021/11/30 21:47:12;;;;;;;48.70;45.80;;;;;;;12.13;100.00;100312.07;2013316;71;33352;-75
2021/11/30 21:53:00;;;;;;;48.90;45.70;;;;;;;12.18;100.00;100293.05;2009603;71;32850;-75
2021/11/30 21:58:44;;;;;;;49.47;46.47;;;;;;;12.18;100.00;100264.64;2004733;71;32924;-75
2021/11/30 22:04:29;;;;;;;50.97;47.93;;;;;;;12.17;100.00;100267.73;1995765;71;33384;-75
2021/11/30 22:10:15;;;;;;;50.43;47.27;;;;;;;12.17;100.00;100262.98;2013160;71;32823;-76
2021/11/30 22:15:59;;;;;;;50.70;47.70;;;;;;;12.23;100.00;100256.19;2015432;71;32824;-75
2021/11/30 22:21:44;;;;;;;50.97;47.43;;;;;;;12.27;100.00;100239.68;2006193;71;32823;-76
2021/11/30 22:27:28;;;;;;;50.90;47.63;;;;;;;12.25;100.00;100230.23;2008424;71;32824;-78
2021/11/30 22:33:15;;;;;;;50.17;47.00;;;;;;;12.27;100.00;100211.27;1997520;71;32770;-75
2021/11/30 22:38:59;;;;;;;49.50;46.23;;;;;;;12.29;100.00;100176.95;2009595;71;33321;-74
2021/11/30 22:44:43;;;;;;;50.60;47.23;;;;;;;12.25;100.00;100163.97;2007939;71;32826;-74
2021/11/30 22:50:27;;;;;;;48.77;45.20;;;;;;;12.29;100.00;100157.47;1979170;71;32765;-74
2021/11/30 22:56:11;;;;;;;48.40;45.20;;;;;;;12.29;100.00;100142.15;2006071;71;33498;-73
2021/11/30 23:02:05;;;;;;;52.63;49.13;;;;;;;12.25;100.00;100127.77;2011641;71;33363;-73
2021/11/30 23:07:47;;;;;;;51.30;47.60;;;;;;;12.11;100.00;100091.62;2011420;71;32944;-74
2021/11/30 23:13:32;;;;;;;52.53;48.77;;;;;;;12.06;100.00;100070.88;2013335;71;32935;-75
2021/11/30 23:19:16;;;;;;;52.87;49.03;;;;;;;11.98;100.00;100090.28;1995198;71;33312;-74
2021/11/30 23:25:05;;;;;;;53.27;49.17;;;;;;;11.83;100.00;100077.53;1999232;71;32845;-74
2021/11/30 23:27:41;;;;;;;53.37;49.67;;;;;;;11.76;100.00;100096.05;1958855;72;26729;-74
2021/11/30 23:33:24;;;;;;;54.47;50.33;;;;;;;11.86;100.00;100054.63;2015020;71;32846;-74
2021/11/30 23:39:10;;;;;;;52.80;48.93;;;;;;;11.86;100.00;100044.33;2011967;71;32750;-73
2021/11/30 23:44:54;;;;;;;53.30;49.30;;;;;;;11.84;100.00;100020.19;2000398;70;33434;-75
2021/11/30 23:50:41;;;;;;;54.57;50.47;;;;;;;11.84;100.00;100018.80;2016992;71;33329;-74
2021/11/30 23:56:25;;;;;;;54.20;50.40;;;;;;;11.90;100.00;99997.21;1998712;71;32841;-74
